createdAt,value
2018-05-08T00:00:58.803Z,55.40
2018-05-08T00:03:26.497Z,55.40
2018-05-08T00:05:54.157Z,55.30
2018-05-08T00:08:21.823Z,55.30
2018-05-08T00:10:49.487Z,55.30
2018-05-08T00:13:17.108Z,55.80
2018-05-08T00:15:44.741Z,55.70
2018-05-08T00:18:12.412Z,55.70
2018-05-08T00:20:40.102Z,55.80
2018-05-08T00:23:07.867Z,55.80
2018-05-08T00:25:35.628Z,55.80
2018-05-08T00:28:03.321Z,56.00
2018-05-08T00:30:30.924Z,56.10
2018-05-08T00:32:58.591Z,56.30
2018-05-08T00:35:26.385Z,56.40
2018-05-08T00:37:54.147Z,56.30
2018-05-08T00:40:21.947Z,56.60
2018-05-08T00:42:49.678Z,56.90
2018-05-08T00:45:17.442Z,56.90
2018-05-08T00:47:45.312Z,56.70
2018-05-08T00:50:13.078Z,56.90
2018-05-08T00:52:40.721Z,56.90
2018-05-08T00:55:08.436Z,57.00
2018-05-08T00:57:36.096Z,57.30
2018-05-08T01:00:03.857Z,57.10
2018-05-08T01:02:32.417Z,57.50
2018-05-08T01:05:00.150Z,57.50
2018-05-08T01:07:27.784Z,57.50
2018-05-08T01:09:56.318Z,58.10
2018-05-08T01:12:24.114Z,57.40
2018-05-08T01:14:52.667Z,57.80
2018-05-08T01:17:20.432Z,57.80
2018-05-08T01:19:48.227Z,58.10
2018-05-08T01:22:15.971Z,58.30
2018-05-08T01:24:43.759Z,58.50
2018-05-08T01:27:11.601Z,58.50
2018-05-08T01:29:39.280Z,58.50
2018-05-08T01:32:06.953Z,58.00
2018-05-08T01:34:34.726Z,57.90
2018-05-08T01:37:03.145Z,57.80
2018-05-08T01:39:30.792Z,57.60
2018-05-08T01:41:59.216Z,57.20
2018-05-08T01:44:26.845Z,57.10
2018-05-08T01:46:54.584Z,56.80
2018-05-08T01:49:23.013Z,57.10
2018-05-08T01:51:50.649Z,57.10
2018-05-08T01:54:18.439Z,57.10
2018-05-08T01:56:46.103Z,57.40
2018-05-08T01:59:13.751Z,57.40
2018-05-08T02:01:41.377Z,57.50
2018-05-08T02:04:10.011Z,57.60
2018-05-08T02:06:37.775Z,57.60
2018-05-08T02:09:05.569Z,57.70
2018-05-08T02:11:33.333Z,57.70
2018-05-08T02:14:01.000Z,57.70
2018-05-08T02:16:28.762Z,57.70
2018-05-08T02:18:56.601Z,57.90
2018-05-08T02:21:24.268Z,57.60
2018-05-08T02:23:51.927Z,57.30
2018-05-08T02:26:20.303Z,57.40
2018-05-08T02:28:47.922Z,57.40
2018-05-08T02:31:16.451Z,57.90
2018-05-08T02:33:44.141Z,57.90
2018-05-08T02:36:11.977Z,58.10
2018-05-08T02:38:39.843Z,58.00
2018-05-08T02:41:07.480Z,58.10
2018-05-08T02:43:35.355Z,58.30
2018-05-08T02:46:03.068Z,58.70
2018-05-08T02:48:31.465Z,58.70
2018-05-08T02:50:59.140Z,58.70
2018-05-08T02:53:26.841Z,58.90
2018-05-08T02:55:54.708Z,58.90
2018-05-08T02:58:22.576Z,58.80
2018-05-08T03:00:50.208Z,59.50
2018-05-08T03:03:17.884Z,59.10
2018-05-08T03:05:45.508Z,59.10
2018-05-08T03:08:13.889Z,59.60
2018-05-08T03:10:42.307Z,59.60
2018-05-08T03:13:09.945Z,59.60
2018-05-08T03:15:37.676Z,58.90
2018-05-08T03:18:05.516Z,59.10
2018-05-08T03:20:33.139Z,59.10
2018-05-08T03:23:00.801Z,58.80
2018-05-08T03:25:28.429Z,58.50
2018-05-08T03:27:56.057Z,58.70
2018-05-08T03:30:24.187Z,58.70
2018-05-08T03:32:53.627Z,58.60
2018-05-08T03:35:21.406Z,58.60
2018-05-08T03:37:49.139Z,58.80
2018-05-08T03:40:16.792Z,59.00
2018-05-08T03:42:44.516Z,59.20
2018-05-08T03:45:12.156Z,58.90
2018-05-08T03:47:39.767Z,59.00
2018-05-08T03:50:08.177Z,59.30
2018-05-08T03:52:35.820Z,59.20
2018-05-08T03:55:03.472Z,59.60
2018-05-08T03:57:31.210Z,59.60
2018-05-08T03:59:59.049Z,59.80
2018-05-08T04:02:38.585Z,59.70
2018-05-08T04:05:18.341Z,59.70
2018-05-08T04:07:57.913Z,59.40
2018-05-08T04:10:25.648Z,59.60
2018-05-08T04:12:54.343Z,59.70
2018-05-08T04:15:22.426Z,60.00
2018-05-08T04:17:52.583Z,60.20
2018-05-08T04:20:20.847Z,60.20
2018-05-08T04:22:48.667Z,60.00
2018-05-08T04:25:16.292Z,59.50
2018-05-08T04:27:44.092Z,59.40
2018-05-08T04:30:11.767Z,59.40
2018-05-08T04:32:39.516Z,59.50
2018-05-08T04:35:07.168Z,59.10
2018-05-08T04:37:34.961Z,58.90
2018-05-08T04:40:02.728Z,58.20
2018-05-08T04:42:31.904Z,57.40
2018-05-08T04:44:59.599Z,57.40
2018-05-08T04:47:28.206Z,57.50
2018-05-08T04:49:56.019Z,56.80
2018-05-08T04:52:23.681Z,57.10
2018-05-08T04:54:51.655Z,56.80
2018-05-08T04:57:19.526Z,56.60
2018-05-08T04:59:47.201Z,55.90
2018-05-08T05:02:14.864Z,55.30
2018-05-08T05:04:42.537Z,55.10
2018-05-08T05:07:10.988Z,55.00
2018-05-08T05:09:38.857Z,54.90
2018-05-08T05:12:06.612Z,54.90
2018-05-08T05:14:34.317Z,55.00
2018-05-08T05:17:02.755Z,54.40
2018-05-08T05:19:30.531Z,54.40
2018-05-08T05:21:58.217Z,54.50
2018-05-08T05:24:26.213Z,54.00
2018-05-08T05:26:54.541Z,54.20
2018-05-08T05:29:22.233Z,54.00
2018-05-08T05:31:50.684Z,53.80
2018-05-08T05:34:18.301Z,53.70
2018-05-08T05:36:46.783Z,52.90
2018-05-08T05:39:15.219Z,53.20
2018-05-08T05:41:42.847Z,53.20
2018-05-08T05:44:10.507Z,52.30
2018-05-08T05:46:38.452Z,51.60
2018-05-08T05:49:06.872Z,51.00
2018-05-08T05:51:34.545Z,51.00
2018-05-08T05:54:02.415Z,50.80
2018-05-08T05:56:30.042Z,49.60
2018-05-08T05:58:57.840Z,48.80
2018-05-08T06:01:25.658Z,48.20
2018-05-08T06:03:54.059Z,45.60
2018-05-08T06:06:22.281Z,45.50
2018-05-08T06:08:50.075Z,45.10
2018-05-08T06:11:18.444Z,44.00
2018-05-08T06:13:46.081Z,43.90
2018-05-08T06:16:13.947Z,43.40
2018-05-08T06:18:41.568Z,42.90
2018-05-08T06:21:09.258Z,41.60
2018-05-08T06:23:37.022Z,40.30
2018-05-08T06:26:04.786Z,39.90
2018-05-08T06:28:32.440Z,39.90
2018-05-08T06:31:01.086Z,39.40
2018-05-08T06:33:29.624Z,39.00
2018-05-08T06:35:57.389Z,38.90
2018-05-08T06:38:25.154Z,38.50
2018-05-08T06:40:52.825Z,38.90
2018-05-08T06:43:20.579Z,39.60
2018-05-08T06:45:48.282Z,39.70
2018-05-08T06:48:16.671Z,41.00
2018-05-08T06:50:44.396Z,40.30
2018-05-08T06:53:12.201Z,40.70
2018-05-08T06:55:40.739Z,40.10
2018-05-08T06:58:08.350Z,40.10
2018-05-08T07:00:36.908Z,41.10
2018-05-08T07:03:04.750Z,41.10
2018-05-08T07:05:32.380Z,41.10
2018-05-08T07:08:00.275Z,41.20
2018-05-08T07:10:27.926Z,41.60
2018-05-08T07:12:55.620Z,41.30
2018-05-08T07:15:23.250Z,40.40
2018-05-08T07:17:51.028Z,41.20
2018-05-08T07:20:18.689Z,41.20
2018-05-08T07:22:46.604Z,42.00
2018-05-08T07:25:14.353Z,41.60
2018-05-08T07:27:42.084Z,41.50
2018-05-08T07:30:09.702Z,41.90
2018-05-08T07:32:38.228Z,42.80
2018-05-08T07:35:05.891Z,42.70
2018-05-08T07:37:33.568Z,42.60
2018-05-08T07:40:01.762Z,42.10
2018-05-08T07:42:30.413Z,43.50
2018-05-08T07:44:58.026Z,42.80
2018-05-08T07:47:26.489Z,42.90
2018-05-08T07:49:54.136Z,42.90
2018-05-08T07:52:21.989Z,43.00
2018-05-08T07:54:49.714Z,43.40
2018-05-08T07:57:17.369Z,43.70
2018-05-08T07:59:45.928Z,43.20
2018-05-08T08:02:14.315Z,42.50
2018-05-08T08:04:42.752Z,41.60
2018-05-08T08:07:10.580Z,41.60
2018-05-08T08:09:38.241Z,41.70
2018-05-08T08:12:06.614Z,43.00
2018-05-08T08:14:34.314Z,43.00
2018-05-08T08:17:02.092Z,42.60
2018-05-08T08:19:29.732Z,42.20
2018-05-08T08:21:57.519Z,41.80
2018-05-08T08:24:25.212Z,41.80
2018-05-08T08:26:52.868Z,41.70
2018-05-08T08:29:20.517Z,42.30
2018-05-08T08:31:48.148Z,42.70
2018-05-08T08:34:15.812Z,42.30
2018-05-08T08:36:43.428Z,42.20
2018-05-08T08:39:11.974Z,41.90
2018-05-08T08:41:39.780Z,41.90
2018-05-08T08:44:07.606Z,42.60
2018-05-08T08:46:35.319Z,42.20
2018-05-08T08:49:03.022Z,41.90
2018-05-08T08:51:30.634Z,42.00
2018-05-08T08:53:59.100Z,38.50
2018-05-08T08:56:26.841Z,38.40
2018-05-08T08:58:54.604Z,39.10
2018-05-08T09:01:22.402Z,39.10
2018-05-08T09:03:50.135Z,38.10
2018-05-08T09:06:17.905Z,39.20
2018-05-08T09:08:45.768Z,38.50
2018-05-08T09:11:13.423Z,38.20
2018-05-08T09:13:41.034Z,39.30
2018-05-08T09:16:09.604Z,39.30
2018-05-08T09:18:37.442Z,39.30
2018-05-08T09:21:05.129Z,39.40
2018-05-08T09:23:33.614Z,38.30
2018-05-08T09:26:01.286Z,38.20
2018-05-08T09:28:29.839Z,38.80
2018-05-08T09:30:57.698Z,38.80
2018-05-08T09:33:25.467Z,39.00
2018-05-08T09:35:53.328Z,39.50
2018-05-08T09:38:20.936Z,39.40
2018-05-08T09:40:49.515Z,40.00
2018-05-08T09:43:18.878Z,39.40
2018-05-08T09:45:46.644Z,39.40
2018-05-08T09:48:14.304Z,39.10
2018-05-08T09:50:41.908Z,39.40
2018-05-08T09:53:10.405Z,39.10
2018-05-08T09:55:38.107Z,39.10
2018-05-08T09:58:05.774Z,39.10
2018-05-08T10:00:33.463Z,39.70
2018-05-08T10:03:01.922Z,39.20
2018-05-08T10:05:29.676Z,39.70
2018-05-08T10:07:57.447Z,41.20
2018-05-08T10:10:25.133Z,41.70
2018-05-08T10:12:52.776Z,41.70
2018-05-08T10:15:20.441Z,42.30
2018-05-08T10:17:48.117Z,42.30
2018-05-08T10:20:16.508Z,42.20
2018-05-08T10:22:44.161Z,42.10
2018-05-08T10:25:11.864Z,42.40
2018-05-08T10:27:39.492Z,42.10
2018-05-08T10:30:07.884Z,42.60
2018-05-08T10:32:36.525Z,42.40
2018-05-08T10:35:04.737Z,42.30
2018-05-08T10:37:33.383Z,42.00
2018-05-08T10:40:01.082Z,42.00
2018-05-08T10:42:28.811Z,42.10
2018-05-08T10:44:56.575Z,42.60
2018-05-08T10:47:24.208Z,42.70
2018-05-08T10:49:52.041Z,43.50
2018-05-08T10:52:19.668Z,43.30
2018-05-08T10:54:47.370Z,42.60
2018-05-08T10:57:15.792Z,42.30
2018-05-08T10:59:43.576Z,42.30
2018-05-08T11:02:11.337Z,42.30
2018-05-08T11:04:38.993Z,42.40
2018-05-08T11:07:06.764Z,42.00
2018-05-08T11:09:34.388Z,41.10
2018-05-08T11:12:02.841Z,41.40
2018-05-08T11:14:31.327Z,41.50
2018-05-08T11:16:59.207Z,41.50
2018-05-08T11:19:27.836Z,41.30
2018-05-08T11:21:55.497Z,41.30
2018-05-08T11:24:23.116Z,41.50
2018-05-08T11:26:51.724Z,41.50
2018-05-08T11:29:19.307Z,41.50
2018-05-08T11:31:46.990Z,41.40
2018-05-08T11:34:14.870Z,41.20
2018-05-08T11:36:42.512Z,41.90
2018-05-08T11:39:11.919Z,41.90
2018-05-08T11:41:39.703Z,41.90
2018-05-08T11:44:07.534Z,41.50
2018-05-08T11:46:35.216Z,41.00
2018-05-08T11:49:02.884Z,40.80
2018-05-08T11:51:30.504Z,40.70
2018-05-08T11:53:58.153Z,41.20
2018-05-08T11:56:25.829Z,41.00
2018-05-08T11:58:53.491Z,40.50
2018-05-08T12:01:21.105Z,41.20
2018-05-08T12:03:48.834Z,40.50
2018-05-08T12:06:16.528Z,40.30
2018-05-08T12:08:44.967Z,41.50
2018-05-08T12:11:12.629Z,41.40
2018-05-08T12:13:40.310Z,41.30
2018-05-08T12:16:07.963Z,41.40
2018-05-08T12:18:35.645Z,41.10
2018-05-08T12:21:03.307Z,41.20
2018-05-08T12:23:30.932Z,41.40
2018-05-08T12:25:58.609Z,40.50
2018-05-08T12:28:27.237Z,39.80
2018-05-08T12:30:55.632Z,40.40
2018-05-08T12:33:24.046Z,39.70
2018-05-08T12:35:51.669Z,39.60
2018-05-08T12:38:20.209Z,40.50
2018-05-08T12:40:47.898Z,40.50
2018-05-08T12:43:16.320Z,39.80
2018-05-08T12:45:44.062Z,39.80
2018-05-08T12:48:12.489Z,39.40
2018-05-08T12:50:40.106Z,39.30
2018-05-08T12:53:08.573Z,40.00
2018-05-08T12:55:37.120Z,39.70
2018-05-08T12:58:04.760Z,39.70
2018-05-08T13:00:32.543Z,39.10
2018-05-08T13:03:00.976Z,40.10
2018-05-08T13:05:28.606Z,39.40
2018-05-08T13:07:56.427Z,39.40
2018-05-08T13:10:24.222Z,38.70
2018-05-08T13:12:52.086Z,39.40
2018-05-08T13:15:19.712Z,39.40
2018-05-08T13:17:47.511Z,39.70
2018-05-08T13:20:15.177Z,39.40
2018-05-08T13:22:42.865Z,38.20
2018-05-08T13:25:10.702Z,37.80
2018-05-08T13:27:38.389Z,38.40
2018-05-08T13:30:06.143Z,38.30
2018-05-08T13:32:33.820Z,38.10
2018-05-08T13:35:02.340Z,37.60
2018-05-08T13:37:30.145Z,38.00
2018-05-08T13:39:57.906Z,37.90
2018-05-08T13:42:25.603Z,37.50
2018-05-08T13:44:54.038Z,39.10
2018-05-08T13:47:21.743Z,38.30
2018-05-08T13:49:49.402Z,37.40
2018-05-08T13:52:17.885Z,37.50
2018-05-08T13:54:45.524Z,36.60
2018-05-08T13:57:13.149Z,36.40
2018-05-08T13:59:40.945Z,36.70
2018-05-08T14:02:08.634Z,36.30
2018-05-08T14:04:36.295Z,36.40
2018-05-08T14:07:04.057Z,36.60
2018-05-08T14:09:31.730Z,36.80
2018-05-08T14:12:00.293Z,36.90
2018-05-08T14:14:28.045Z,36.80
2018-05-08T14:16:55.719Z,36.90
2018-05-08T14:19:23.425Z,36.40
2018-05-08T14:21:51.163Z,36.40
2018-05-08T14:24:18.826Z,36.40
2018-05-08T14:26:46.487Z,36.60
2018-05-08T14:29:14.229Z,37.30
2018-05-08T14:31:42.089Z,36.80
2018-05-08T14:34:10.490Z,36.70
2018-05-08T14:36:38.171Z,36.60
2018-05-08T14:39:05.830Z,36.80
2018-05-08T14:41:34.306Z,35.70
2018-05-08T14:44:01.979Z,36.20
2018-05-08T14:46:30.421Z,35.90
2018-05-08T14:48:58.219Z,35.80
2018-05-08T14:51:26.775Z,35.40
2018-05-08T14:53:54.543Z,35.10
2018-05-08T14:56:22.207Z,35.60
2018-05-08T14:58:49.921Z,35.40
2018-05-08T15:01:17.681Z,35.30
2018-05-08T15:03:46.314Z,35.70
2018-05-08T15:06:14.001Z,35.60
2018-05-08T15:08:41.844Z,35.50
2018-05-08T15:11:09.710Z,34.40
2018-05-08T15:13:37.505Z,34.80
2018-05-08T15:16:05.447Z,35.00
2018-05-08T15:18:33.212Z,33.70
2018-05-08T15:21:00.980Z,33.60
2018-05-08T15:23:29.563Z,34.40
2018-05-08T15:25:57.428Z,34.30
2018-05-08T15:28:25.192Z,34.80
2018-05-08T15:30:52.957Z,34.80
2018-05-08T15:33:20.650Z,34.20
2018-05-08T15:35:48.308Z,34.70
2018-05-08T15:38:16.147Z,35.00
2018-05-08T15:40:43.915Z,34.60
2018-05-08T15:43:11.681Z,34.20
2018-05-08T15:45:39.474Z,34.80
2018-05-08T15:48:07.108Z,34.60
2018-05-08T15:50:34.736Z,35.50
2018-05-08T15:53:02.428Z,35.10
2018-05-08T15:55:30.066Z,34.60
2018-05-08T15:57:57.687Z,34.10
2018-05-08T16:00:25.421Z,34.60
2018-05-08T16:02:53.056Z,35.50
2018-05-08T16:05:20.681Z,35.10
2018-05-08T16:07:49.321Z,34.70
2018-05-08T16:10:17.194Z,34.70
2018-05-08T16:12:44.884Z,34.50
2018-05-08T16:15:12.550Z,34.80
2018-05-08T16:17:40.317Z,34.40
2018-05-08T16:20:08.798Z,34.60
2018-05-08T16:22:36.634Z,34.50
2018-05-08T16:25:04.605Z,34.40
2018-05-08T16:27:32.383Z,35.20
2018-05-08T16:30:00.046Z,35.70
2018-05-08T16:32:27.668Z,35.60
2018-05-08T16:34:55.391Z,35.10
2018-05-08T16:37:23.837Z,36.00
2018-05-08T16:39:51.496Z,36.00
2018-05-08T16:42:19.170Z,35.20
2018-05-08T16:44:46.922Z,35.50
2018-05-08T16:47:14.700Z,35.30
2018-05-08T16:49:42.445Z,35.80
2018-05-08T16:52:10.070Z,36.00
2018-05-08T16:54:38.696Z,35.90
2018-05-08T16:57:06.469Z,35.90
2018-05-08T16:59:34.335Z,36.20
2018-05-08T17:02:02.218Z,37.00
2018-05-08T17:04:30.101Z,37.40
2018-05-08T17:06:58.651Z,37.50
2018-05-08T17:09:26.430Z,37.50
2018-05-08T17:11:54.096Z,37.10
2018-05-08T17:14:21.946Z,37.20
2018-05-08T17:16:49.704Z,36.80
2018-05-08T17:19:17.361Z,37.10
2018-05-08T17:21:45.074Z,37.30
2018-05-08T17:24:13.537Z,37.50
2018-05-08T17:26:41.241Z,37.50
2018-05-08T17:29:09.132Z,37.70
2018-05-08T17:31:36.751Z,37.30
2018-05-08T17:34:05.236Z,37.00
2018-05-08T17:36:33.680Z,37.20
2018-05-08T17:39:01.445Z,37.20
2018-05-08T17:41:29.063Z,37.60
2018-05-08T17:43:56.887Z,37.10
2018-05-08T17:46:24.634Z,37.50
2018-05-08T17:48:52.388Z,37.80
2018-05-08T17:51:20.254Z,38.20
2018-05-08T17:53:47.890Z,38.20
2018-05-08T17:56:16.329Z,38.70
2018-05-08T17:58:45.660Z,38.50
2018-05-08T18:01:13.376Z,38.50
2018-05-08T18:03:40.987Z,38.90
2018-05-08T18:06:08.710Z,38.90
2018-05-08T18:08:37.355Z,39.00
2018-05-08T18:59:44.479Z,41.60
2018-05-08T19:02:12.150Z,41.70
2018-05-08T19:04:39.780Z,41.70
2018-05-08T19:07:07.683Z,41.80
2018-05-08T19:09:35.380Z,41.70
2018-05-08T19:12:03.846Z,42.10
2018-05-08T19:14:31.492Z,42.10
2018-05-08T19:16:59.270Z,42.20
2018-05-08T19:19:32.870Z,41.90
2018-05-08T19:22:00.536Z,42.00
2018-05-08T19:24:34.135Z,42.00
2018-05-08T19:27:01.905Z,41.90
2018-05-08T19:29:36.123Z,42.20
2018-05-08T19:32:03.958Z,42.10
2018-05-08T19:34:37.224Z,42.00
2018-05-08T19:37:10.747Z,42.10
2018-05-08T19:39:38.624Z,42.10
2018-05-08T19:42:06.482Z,42.30
2018-05-08T19:44:34.244Z,42.30
2018-05-08T19:47:01.916Z,42.00
2018-05-08T19:49:29.625Z,42.20
2018-05-08T19:51:58.012Z,42.00
2018-05-08T19:54:26.457Z,41.90
2018-05-08T19:56:54.298Z,41.90
2018-05-08T19:59:21.997Z,41.90
2018-05-08T20:01:50.582Z,42.60
2018-05-08T20:04:19.127Z,41.90
2018-05-08T20:06:47.000Z,41.80
2018-05-08T20:09:14.770Z,42.00
2018-05-08T20:11:42.477Z,41.80
2018-05-08T20:14:11.006Z,42.30
2018-05-08T20:16:38.773Z,42.30
2018-05-08T20:19:06.537Z,41.90
2018-05-08T20:21:34.301Z,42.10
2018-05-08T20:24:01.925Z,41.60
2018-05-08T20:26:30.339Z,41.70
2018-05-08T20:28:58.141Z,41.70
2018-05-08T20:31:26.520Z,41.80
2018-05-08T20:33:54.262Z,41.90
2018-05-08T20:36:21.941Z,41.80
2018-05-08T20:38:49.706Z,42.00
2018-05-08T20:41:17.547Z,42.10
2018-05-08T20:43:46.052Z,41.60
2018-05-08T20:46:13.717Z,41.60
2018-05-08T20:48:41.331Z,41.60
2018-05-08T20:51:08.980Z,41.90
2018-05-08T20:53:36.664Z,42.10
2018-05-08T20:56:05.189Z,42.40
2018-05-08T20:58:32.803Z,42.40
2018-05-08T21:01:00.505Z,42.20
2018-05-08T21:03:28.872Z,42.00
2018-05-08T21:05:56.493Z,42.00
2018-05-08T21:08:24.144Z,41.90
2018-05-08T21:10:52.593Z,41.50
2018-05-08T21:13:20.252Z,41.40
2018-05-08T21:15:47.923Z,41.70
2018-05-08T21:18:16.466Z,41.80
2018-05-08T21:20:44.252Z,41.70
2018-05-08T21:23:11.889Z,41.80
2018-05-08T21:25:39.549Z,41.90
2018-05-08T21:28:12.990Z,42.10
2018-05-08T21:30:47.224Z,42.30
2018-05-08T21:33:14.860Z,42.10
2018-05-08T21:35:42.705Z,42.40
2018-05-08T21:38:10.376Z,42.70
2018-05-08T21:40:37.972Z,42.70
2018-05-08T21:43:05.693Z,42.70
2018-05-08T21:45:33.459Z,43.60
2018-05-08T21:48:01.076Z,43.00
2018-05-08T21:50:29.706Z,43.50
2018-05-08T21:52:57.471Z,43.50
2018-05-08T21:55:25.088Z,43.70
2018-05-08T21:57:53.511Z,43.90
2018-05-08T22:00:21.177Z,43.90
2018-05-08T22:02:48.784Z,43.40
2018-05-08T22:05:17.341Z,44.00
2018-05-08T22:07:45.081Z,43.90
2018-05-08T22:10:12.691Z,43.80
2018-05-08T22:12:41.328Z,44.50
2018-05-08T22:15:08.961Z,44.50
2018-05-08T22:17:36.595Z,44.50
2018-05-08T22:20:05.165Z,45.10
2018-05-08T22:22:32.818Z,45.80
2018-05-08T22:25:00.493Z,45.70
2018-05-08T22:27:28.096Z,45.20
2018-05-08T22:29:55.886Z,45.60
2018-05-08T22:32:23.599Z,45.00
2018-05-08T22:34:52.133Z,45.40
2018-05-08T22:37:19.765Z,45.40
2018-05-08T22:39:47.559Z,45.30
2018-05-08T22:42:15.245Z,45.20
2018-05-08T22:44:43.634Z,46.00
2018-05-08T22:47:11.366Z,46.60
2018-05-08T22:49:39.060Z,45.70
2018-05-08T22:52:06.671Z,45.90
2018-05-08T22:54:34.315Z,46.10
2018-05-08T22:57:02.939Z,46.30
2018-05-08T22:59:30.641Z,46.20
2018-05-08T23:01:59.184Z,46.80
2018-05-08T23:04:26.792Z,46.80
2018-05-08T23:06:55.255Z,47.30
2018-05-08T23:09:22.933Z,47.30
2018-05-08T23:11:51.472Z,47.10
2018-05-08T23:14:19.338Z,47.10
2018-05-08T23:16:46.943Z,47.30
2018-05-08T23:19:14.584Z,47.60
2018-05-08T23:21:42.232Z,48.30
2018-05-08T23:24:09.873Z,48.70
2018-05-08T23:26:37.583Z,49.10
2018-05-08T23:29:05.228Z,49.40
2018-05-08T23:31:32.849Z,49.40
2018-05-08T23:34:00.643Z,49.50
2018-05-08T23:36:28.406Z,49.60
2018-05-08T23:38:56.008Z,49.80
2018-05-08T23:41:24.551Z,50.10
2018-05-08T23:43:52.240Z,50.10
2018-05-08T23:46:19.891Z,50.10
2018-05-08T23:48:47.500Z,50.50
2018-05-08T23:51:15.300Z,50.70
2018-05-08T23:53:42.962Z,51.20
2018-05-08T23:56:10.728Z,51.00
2018-05-08T23:58:38.522Z,51.20
